createdAt,value
2018-08-19T00:01:49.672Z,10.57
2018-08-19T00:04:17.443Z,9.93
2018-08-19T00:06:45.115Z,11.93
2018-08-19T00:09:13.986Z,11.13
2018-08-19T00:11:43.079Z,9.27
2018-08-19T00:14:24.806Z,9.20
2018-08-19T00:16:53.290Z,10.03
2018-08-19T00:19:21.070Z,7.30
2018-08-19T00:21:48.917Z,9.50
2018-08-19T00:24:16.844Z,6.80
2018-08-19T00:26:45.049Z,8.67
2018-08-19T00:29:12.794Z,7.77
2018-08-19T00:31:40.559Z,8.53
2018-08-19T00:34:08.497Z,7.40
2018-08-19T00:36:36.158Z,5.67
2018-08-19T00:39:06.704Z,5.30
2018-08-19T00:41:34.454Z,5.77
2018-08-19T00:44:02.202Z,5.13
2018-08-19T00:46:31.850Z,5.87
2018-08-19T00:49:00.274Z,5.57
2018-08-19T00:51:28.303Z,6.73
2018-08-19T00:53:56.281Z,6.07
2018-08-19T00:56:24.054Z,5.40
2018-08-19T00:58:51.762Z,6.47
2018-08-19T01:01:36.758Z,4.90
2018-08-19T01:04:07.442Z,8.00
2018-08-19T01:06:40.818Z,6.23
2018-08-19T01:09:09.397Z,5.97
2018-08-19T01:11:37.561Z,5.47
2018-08-19T01:14:09.053Z,6.33
2018-08-19T01:16:36.807Z,7.80
2018-08-19T01:19:04.538Z,9.50
2018-08-19T01:21:32.901Z,5.30
2018-08-19T01:24:01.986Z,6.20
2018-08-19T01:26:36.046Z,8.73
2018-08-19T01:29:04.813Z,7.47
2018-08-19T01:31:32.602Z,8.10
2018-08-19T01:34:00.367Z,8.60
2018-08-19T01:36:30.099Z,6.33
2018-08-19T01:38:57.829Z,7.60
2018-08-19T01:41:25.559Z,8.57
2018-08-19T01:44:04.908Z,8.80
2018-08-19T01:46:35.733Z,9.60
2018-08-19T01:49:03.641Z,11.63
2018-08-19T01:51:31.354Z,8.63
2018-08-19T01:54:05.087Z,9.73
2018-08-19T01:56:33.134Z,8.57
2018-08-19T01:59:00.802Z,7.67
2018-08-19T02:01:41.859Z,10.40
2018-08-19T02:04:09.530Z,9.17
2018-08-19T02:06:37.260Z,8.70
2018-08-19T02:09:07.381Z,14.57
2018-08-19T02:11:35.078Z,8.07
2018-08-19T02:14:02.891Z,9.37
2018-08-19T02:16:30.572Z,8.07
2018-08-19T02:18:58.241Z,8.80
2018-08-19T02:21:25.955Z,10.47
2018-08-19T02:23:53.610Z,9.93
2018-08-19T02:26:35.942Z,10.33
2018-08-19T02:29:14.406Z,9.30
2018-08-19T02:31:42.069Z,10.37
2018-08-19T02:34:09.878Z,9.83
2018-08-19T02:36:37.532Z,11.43
2018-08-19T02:39:05.646Z,12.67
2018-08-19T02:41:33.421Z,14.87
2018-08-19T02:44:01.086Z,11.93
2018-08-19T02:46:28.757Z,11.57
2018-08-19T02:48:56.490Z,11.93
2018-08-19T02:51:24.166Z,13.93
2018-08-19T02:53:52.157Z,10.37
2018-08-19T02:56:20.334Z,11.00
2018-08-19T02:58:48.493Z,12.37
2018-08-19T03:01:17.175Z,12.87
2018-08-19T03:03:44.827Z,14.83
2018-08-19T03:06:12.610Z,15.07
2018-08-19T03:08:50.528Z,16.60
2018-08-19T03:11:19.714Z,14.73
2018-08-19T03:13:47.669Z,13.10
2018-08-19T03:16:15.354Z,13.13
2018-08-19T03:18:43.119Z,12.30
2018-08-19T03:21:10.828Z,10.20
2018-08-19T03:23:38.543Z,10.27
2018-08-19T03:26:06.208Z,11.10
2018-08-19T03:28:33.870Z,13.20
2018-08-19T03:31:02.461Z,12.97
2018-08-19T03:33:30.702Z,11.07
2018-08-19T03:35:58.678Z,10.40
2018-08-19T03:38:27.129Z,10.20
2018-08-19T03:40:55.985Z,12.27
2018-08-19T03:43:23.805Z,11.33
2018-08-19T03:45:51.465Z,9.73
2018-08-19T03:48:19.135Z,12.40
2018-08-19T03:50:46.798Z,11.73
2018-08-19T03:53:14.562Z,12.87
2018-08-19T03:55:42.292Z,10.57
2018-08-19T03:58:10.906Z,11.57
2018-08-19T04:00:41.324Z,12.90
2018-08-19T04:03:20.063Z,8.90
2018-08-19T04:05:54.805Z,8.77
2018-08-19T04:08:58.714Z,7.87
2018-08-19T04:11:26.384Z,10.43
2018-08-19T04:16:27.510Z,16.63
2018-08-19T04:19:00.793Z,9.80
2018-08-19T04:21:28.429Z,8.87
2018-08-19T04:23:56.094Z,12.13
2018-08-19T04:26:23.756Z,12.83
2018-08-19T04:28:51.438Z,12.80
2018-08-19T04:31:23.921Z,8.83
2018-08-19T04:33:51.687Z,9.50
2018-08-19T04:36:21.501Z,10.60
2018-08-19T04:38:49.245Z,10.87
2018-08-19T04:41:17.055Z,10.87
2018-08-19T04:43:45.409Z,9.97
2018-08-19T04:46:13.188Z,7.33
2018-08-19T04:48:41.197Z,9.03
2018-08-19T04:51:08.875Z,12.27
2018-08-19T04:53:36.546Z,10.23
2018-08-19T04:56:04.278Z,9.10
2018-08-19T04:58:32.071Z,7.80
2018-08-19T05:01:00.107Z,12.00
2018-08-19T05:03:27.774Z,11.37
2018-08-19T05:05:58.045Z,11.13
2018-08-19T05:08:25.978Z,9.53
2018-08-19T05:10:53.667Z,10.20
2018-08-19T05:13:21.449Z,9.83
2018-08-19T05:15:49.109Z,7.63
2018-08-19T05:18:16.854Z,10.93
2018-08-19T05:20:44.541Z,12.60
2018-08-19T05:23:12.211Z,7.03
2018-08-19T05:26:11.860Z,7.73
2018-08-19T05:28:39.929Z,9.30
2018-08-19T05:31:07.726Z,8.00
2018-08-19T05:33:35.546Z,7.70
2018-08-19T05:36:03.319Z,9.50
2018-08-19T05:38:32.259Z,10.03
2018-08-19T05:41:00.946Z,6.23
2018-08-19T05:43:29.465Z,9.00
2018-08-19T05:45:59.159Z,7.70
2018-08-19T05:48:27.106Z,6.80
2018-08-19T05:50:55.501Z,11.17
2018-08-19T05:53:23.403Z,8.13
2018-08-19T05:55:51.644Z,7.97
2018-08-19T05:58:19.798Z,7.17
2018-08-19T06:00:51.039Z,10.23
2018-08-19T06:03:18.735Z,7.87
2018-08-19T06:05:46.417Z,10.03
2018-08-19T06:08:15.165Z,8.50
2018-08-19T06:10:42.905Z,6.70
2018-08-19T06:13:11.505Z,7.67
2018-08-19T06:15:39.576Z,10.20
2018-08-19T06:18:07.803Z,9.23
2018-08-19T06:20:35.466Z,6.23
2018-08-19T06:23:03.170Z,10.33
2018-08-19T06:25:30.914Z,7.10
2018-08-19T06:27:58.998Z,7.10
2018-08-19T06:30:26.825Z,8.70
2018-08-19T06:32:54.630Z,7.83
2018-08-19T06:35:22.477Z,7.93
2018-08-19T06:37:50.186Z,8.47
2018-08-19T06:40:19.869Z,7.27
2018-08-19T06:42:47.579Z,7.90
2018-08-19T06:45:15.506Z,13.43
2018-08-19T06:47:43.317Z,9.93
2018-08-19T06:50:20.805Z,8.00
2018-08-19T06:52:48.546Z,9.10
2018-08-19T06:55:16.598Z,7.80
2018-08-19T06:57:44.352Z,14.07
2018-08-19T07:00:16.094Z,7.83
2018-08-19T07:02:43.813Z,7.27
2018-08-19T07:05:11.486Z,8.83
2018-08-19T07:07:39.174Z,10.23
2018-08-19T07:10:07.065Z,7.63
2018-08-19T07:12:34.797Z,7.70
2018-08-19T07:15:02.607Z,10.07
2018-08-19T07:17:30.354Z,8.87
2018-08-19T07:19:58.028Z,6.43
2018-08-19T07:22:25.710Z,8.07
2018-08-19T07:24:53.424Z,6.30
2018-08-19T07:27:21.113Z,8.00
2018-08-19T07:29:48.878Z,5.20
2018-08-19T07:32:16.535Z,9.47
2018-08-19T07:34:44.258Z,8.90
2018-08-19T07:37:11.992Z,6.10
2018-08-19T07:39:46.223Z,6.03
2018-08-19T07:42:14.245Z,8.20
2018-08-19T07:44:41.978Z,11.10
2018-08-19T07:47:09.665Z,9.17
2018-08-19T07:49:37.378Z,7.33
2018-08-19T07:52:05.202Z,6.93
2018-08-19T07:54:32.976Z,7.90
2018-08-19T07:57:09.960Z,7.33
2018-08-19T07:59:37.691Z,7.73
2018-08-19T08:02:06.084Z,6.57
2018-08-19T08:04:38.279Z,7.60
2018-08-19T08:07:05.980Z,7.10
2018-08-19T08:09:33.638Z,6.83
2018-08-19T08:12:01.343Z,8.63
2018-08-19T08:14:29.857Z,7.63
2018-08-19T08:16:57.749Z,8.53
2018-08-19T08:19:25.458Z,9.10
2018-08-19T08:22:02.010Z,11.53
2018-08-19T08:24:30.502Z,7.43
2018-08-19T08:26:58.434Z,7.67
2018-08-19T08:29:26.115Z,9.43
2018-08-19T08:31:57.996Z,10.93
2018-08-19T08:34:27.149Z,7.20
2018-08-19T08:37:00.259Z,8.63
2018-08-19T08:39:28.017Z,7.17
2018-08-19T08:41:56.219Z,9.50
2018-08-19T08:44:23.885Z,8.47
2018-08-19T08:46:51.562Z,8.60
2018-08-19T08:49:19.259Z,7.53
2018-08-19T08:51:46.983Z,6.73
2018-08-19T08:54:14.686Z,8.43
2018-08-19T08:56:42.394Z,8.13
2018-08-19T08:59:10.136Z,6.63
2018-08-19T09:01:37.849Z,6.67
2018-08-19T09:04:05.574Z,9.77
2018-08-19T09:06:33.342Z,6.30
2018-08-19T09:09:01.097Z,9.70
2018-08-19T09:11:28.793Z,6.47
2018-08-19T09:13:56.567Z,7.37
2018-08-19T09:16:24.249Z,5.73
2018-08-19T09:18:52.018Z,9.53
2018-08-19T09:21:19.726Z,5.77
2018-08-19T09:23:47.381Z,7.57
2018-08-19T09:26:15.157Z,7.97
2018-08-19T09:28:42.844Z,6.57
2018-08-19T09:31:10.512Z,7.93
2018-08-19T09:33:38.204Z,10.63
2018-08-19T09:36:05.889Z,5.30
2018-08-19T09:38:33.582Z,7.00
2018-08-19T09:41:01.320Z,5.67
2018-08-19T09:43:29.078Z,8.03
2018-08-19T09:45:56.762Z,5.90
2018-08-19T09:48:24.506Z,6.47
2018-08-19T09:50:52.418Z,6.47
2018-08-19T09:53:20.125Z,7.53
2018-08-19T09:55:54.529Z,8.67
2018-08-19T09:58:22.657Z,13.60
2018-08-19T10:00:55.941Z,6.83
2018-08-19T10:03:23.653Z,5.97
2018-08-19T10:05:51.354Z,6.83
2018-08-19T10:08:21.857Z,7.33
2018-08-19T10:10:49.877Z,6.13
2018-08-19T10:13:17.565Z,6.47
2018-08-19T10:15:45.220Z,8.13
2018-08-19T10:18:13.032Z,6.07
2018-08-19T10:20:40.838Z,6.40
2018-08-19T10:23:08.582Z,5.07
2018-08-19T10:25:36.350Z,7.43
2018-08-19T10:28:04.107Z,8.17
2018-08-19T10:30:31.843Z,5.00
2018-08-19T10:33:06.565Z,6.43
2018-08-19T10:35:34.894Z,6.43
2018-08-19T10:38:03.378Z,5.00
2018-08-19T10:40:31.234Z,8.13
2018-08-19T10:43:04.990Z,6.30
2018-08-19T10:45:37.795Z,6.47
2018-08-19T10:48:07.406Z,5.93
2018-08-19T10:50:35.188Z,8.83
2018-08-19T10:53:03.374Z,6.20
2018-08-19T10:55:31.128Z,4.23
2018-08-19T10:57:58.851Z,5.53
2018-08-19T11:00:30.554Z,7.13
2018-08-19T11:03:22.975Z,5.17
2018-08-19T11:05:52.311Z,5.37
2018-08-19T11:08:20.145Z,6.13
2018-08-19T11:10:48.002Z,8.30
2018-08-19T11:13:18.709Z,6.57
2018-08-19T11:15:48.663Z,5.13
2018-08-19T11:18:23.994Z,8.10
2018-08-19T11:21:01.513Z,6.47
2018-08-19T11:23:29.178Z,8.20
2018-08-19T11:25:57.718Z,5.93
2018-08-19T11:28:35.729Z,5.37
2018-08-19T11:31:03.551Z,6.23
2018-08-19T11:33:38.733Z,5.50
2018-08-19T11:36:06.838Z,6.53
2018-08-19T11:38:34.528Z,6.07
2018-08-19T11:41:05.292Z,5.53
2018-08-19T11:43:37.056Z,6.53
2018-08-19T11:46:05.335Z,9.77
2018-08-19T11:48:33.044Z,5.57
2018-08-19T11:51:00.989Z,6.53
2018-08-19T11:53:28.700Z,6.10
2018-08-19T11:55:56.699Z,6.77
2018-08-19T11:58:35.929Z,5.70
2018-08-19T12:01:05.401Z,6.40
2018-08-19T12:04:06.132Z,5.23
2018-08-19T12:06:34.225Z,5.60
2018-08-19T12:09:05.579Z,5.10
2018-08-19T12:11:34.585Z,5.43
2018-08-19T12:14:05.827Z,8.33
2018-08-19T12:16:40.903Z,6.17
2018-08-19T12:19:14.069Z,6.73
2018-08-19T12:21:46.434Z,7.73
2018-08-19T12:24:23.641Z,7.07
2018-08-19T12:26:53.929Z,6.47
2018-08-19T12:29:22.369Z,7.10
2018-08-19T12:31:52.637Z,5.77
2018-08-19T12:34:20.372Z,6.57
2018-08-19T12:36:48.020Z,5.53
2018-08-19T12:39:15.698Z,5.70
2018-08-19T12:41:50.689Z,6.03
2018-08-19T12:44:18.361Z,5.87
2018-08-19T12:47:01.833Z,6.23
2018-08-19T12:49:31.250Z,5.43
2018-08-19T12:51:58.923Z,7.10
2018-08-19T12:54:26.613Z,5.33
2018-08-19T12:56:54.277Z,7.00
2018-08-19T12:59:21.944Z,6.43
2018-08-19T13:01:49.626Z,7.60
2018-08-19T13:04:17.392Z,5.57
2018-08-19T13:06:56.291Z,7.53
2018-08-19T13:09:27.121Z,6.20
2018-08-19T13:11:54.922Z,6.63
2018-08-19T13:14:22.683Z,6.20
2018-08-19T13:16:50.362Z,6.57
2018-08-19T13:19:18.036Z,5.33
2018-08-19T13:21:45.757Z,6.57
2018-08-19T13:24:13.499Z,7.13
2018-08-19T13:26:41.203Z,6.47
2018-08-19T13:29:08.926Z,5.03
2018-08-19T13:31:36.589Z,5.23
2018-08-19T13:34:04.342Z,6.83
2018-08-19T13:36:32.369Z,4.37
2018-08-19T13:39:00.054Z,4.43
2018-08-19T13:41:27.714Z,4.53
2018-08-19T13:43:55.373Z,6.13
2018-08-19T13:46:23.081Z,6.23
2018-08-19T13:48:51.039Z,4.37
2018-08-19T13:51:18.777Z,5.37
2018-08-19T13:53:46.449Z,4.40
2018-08-19T13:56:14.337Z,6.50
2018-08-19T13:58:42.112Z,4.37
2018-08-19T14:01:09.806Z,5.77
2018-08-19T14:03:37.547Z,5.23
2018-08-19T14:06:05.249Z,4.30
2018-08-19T14:08:32.913Z,5.90
2018-08-19T14:11:00.590Z,4.73
2018-08-19T14:13:28.224Z,5.20
2018-08-19T14:15:55.901Z,5.67
2018-08-19T14:18:23.597Z,8.83
2018-08-19T14:20:51.234Z,6.00
2018-08-19T14:23:18.899Z,4.70
2018-08-19T14:25:48.104Z,7.50
2018-08-19T14:28:15.781Z,6.40
2018-08-19T14:30:43.515Z,5.40
2018-08-19T14:33:11.233Z,4.63
2018-08-19T14:35:38.881Z,8.60
2018-08-19T14:38:06.593Z,4.70
2018-08-19T14:40:34.455Z,8.50
2018-08-19T14:43:02.011Z,4.93
2018-08-19T14:45:29.683Z,6.33
2018-08-19T14:47:57.445Z,5.23
2018-08-19T14:50:25.137Z,5.13
2018-08-19T14:52:52.959Z,5.13
2018-08-19T14:55:20.637Z,7.00
2018-08-19T14:57:48.338Z,5.67
2018-08-19T15:00:16.868Z,6.57
2018-08-19T15:02:44.577Z,5.93
2018-08-19T15:05:13.405Z,6.37
2018-08-19T15:07:41.438Z,5.10
2018-08-19T15:10:09.199Z,5.60
2018-08-19T15:12:36.858Z,6.63
2018-08-19T15:15:04.780Z,5.30
2018-08-19T15:17:32.459Z,4.80
2018-08-19T15:20:00.126Z,5.13
2018-08-19T15:22:27.855Z,6.90
2018-08-19T15:24:55.569Z,6.03
2018-08-19T15:27:23.300Z,4.87
2018-08-19T15:29:52.326Z,5.43
2018-08-19T15:32:22.179Z,5.13
2018-08-19T15:34:49.671Z,6.23
2018-08-19T15:37:17.373Z,6.67
2018-08-19T15:39:45.159Z,5.10
2018-08-19T15:42:14.184Z,8.20
2018-08-19T15:44:41.856Z,6.13
2018-08-19T15:47:09.652Z,5.77
2018-08-19T15:49:37.359Z,6.60
2018-08-19T15:52:05.059Z,5.53
2018-08-19T15:54:32.758Z,7.13
2018-08-19T15:57:02.036Z,9.30
2018-08-19T15:59:36.419Z,8.20
2018-08-19T16:02:04.387Z,7.97
2018-08-19T16:04:32.234Z,10.30
2018-08-19T16:07:00.279Z,7.80
2018-08-19T16:09:28.738Z,7.53
2018-08-19T16:11:56.587Z,9.53
2018-08-19T16:14:28.431Z,9.13
2018-08-19T16:16:57.730Z,9.00
2018-08-19T16:19:25.441Z,7.83
2018-08-19T16:21:54.419Z,6.30
2018-08-19T16:24:22.249Z,12.50
2018-08-19T16:26:50.005Z,7.10
2018-08-19T16:29:17.782Z,10.17
2018-08-19T16:31:45.639Z,10.97
2018-08-19T16:34:13.439Z,11.43
2018-08-19T16:36:41.215Z,9.20
2018-08-19T16:39:10.677Z,9.63
2018-08-19T16:41:38.421Z,7.37
2018-08-19T16:44:06.416Z,6.37
2018-08-19T16:46:34.156Z,8.53
2018-08-19T16:49:02.057Z,7.37
2018-08-19T16:51:29.876Z,7.17
2018-08-19T16:53:57.575Z,10.87
2018-08-19T16:56:25.633Z,11.67
2018-08-19T16:58:53.399Z,7.40
2018-08-19T17:01:21.169Z,8.30
2018-08-19T17:03:48.844Z,10.90
2018-08-19T17:06:16.549Z,11.87
2018-08-19T17:08:44.305Z,8.80
2018-08-19T17:11:13.039Z,12.87
2018-08-19T17:13:40.773Z,10.40
2018-08-19T17:16:08.753Z,13.57
2018-08-19T17:18:36.430Z,12.77
2018-08-19T17:21:04.194Z,9.77
2018-08-19T17:23:32.170Z,10.77
2018-08-19T17:26:05.755Z,14.47
2018-08-19T17:28:33.390Z,8.53
2018-08-19T17:31:01.451Z,11.27
2018-08-19T17:33:30.708Z,12.60
2018-08-19T17:35:58.599Z,11.97
2018-08-19T17:38:32.274Z,11.00
2018-08-19T17:41:00.473Z,11.27
2018-08-19T17:43:33.719Z,11.67
2018-08-19T17:46:20.405Z,11.57
2018-08-19T17:48:48.170Z,9.77
2018-08-19T17:51:27.650Z,9.53
2018-08-19T17:53:55.348Z,7.27
2018-08-19T17:56:23.010Z,9.47
2018-08-19T17:58:50.939Z,7.27
2018-08-19T18:01:18.906Z,11.73
2018-08-19T18:03:46.662Z,8.83
2018-08-19T18:06:14.336Z,8.00
2018-08-19T18:08:47.566Z,10.07
2018-08-19T18:11:15.400Z,9.53
2018-08-19T18:13:43.189Z,8.00
2018-08-19T18:16:11.422Z,9.27
2018-08-19T18:18:39.161Z,9.63
2018-08-19T18:21:06.949Z,9.10
2018-08-19T18:23:34.682Z,9.60
2018-08-19T18:26:02.421Z,8.63
2018-08-19T18:28:31.273Z,7.07
2018-08-19T18:31:04.064Z,8.57
2018-08-19T18:33:31.886Z,10.83
2018-08-19T18:35:59.604Z,8.77
2018-08-19T18:38:30.351Z,9.20
2018-08-19T18:40:58.412Z,9.70
2018-08-19T18:43:26.147Z,9.87
2018-08-19T18:45:53.924Z,8.27
2018-08-19T18:48:21.674Z,8.37
2018-08-19T18:50:53.776Z,10.00
2018-08-19T18:53:22.118Z,9.17
2018-08-19T18:55:49.877Z,11.70
2018-08-19T18:58:17.652Z,8.57
2018-08-19T19:00:50.830Z,8.70
2018-08-19T19:03:18.650Z,9.50
2018-08-19T19:05:46.372Z,8.80
2018-08-19T19:08:17.096Z,8.53
2018-08-19T19:10:51.654Z,10.07
2018-08-19T19:13:20.682Z,12.57
2018-08-19T19:15:48.986Z,8.60
2018-08-19T19:18:17.079Z,12.13
2018-08-19T19:20:49.970Z,8.47
2018-08-19T19:23:18.162Z,9.43
2018-08-19T19:25:45.882Z,12.37
2018-08-19T19:28:13.566Z,8.50
2018-08-19T19:30:41.258Z,9.07
2018-08-19T19:33:11.998Z,11.57
2018-08-19T19:35:39.742Z,10.03
2018-08-19T19:38:07.979Z,11.40
2018-08-19T19:40:35.662Z,8.20
2018-08-19T19:43:03.756Z,8.97
2018-08-19T19:45:44.842Z,8.97
2018-08-19T19:48:12.512Z,11.90
2018-08-19T19:50:40.414Z,11.47
2018-08-19T19:53:08.120Z,9.63
2018-08-19T19:55:35.801Z,12.00
2018-08-19T19:58:03.590Z,11.23
2018-08-19T20:01:03.164Z,10.17
2018-08-19T20:03:33.197Z,10.90
2018-08-19T20:06:02.810Z,10.47
2018-08-19T20:08:30.524Z,11.17
2018-08-19T20:10:58.227Z,10.43
2018-08-19T20:13:25.890Z,11.37
2018-08-19T20:15:53.605Z,9.83
2018-08-19T20:18:21.322Z,10.70
2018-08-19T20:20:49.053Z,10.97
2018-08-19T20:23:22.201Z,12.23
2018-08-19T20:25:49.894Z,8.57
2018-08-19T20:28:17.624Z,13.53
2018-08-19T20:30:45.348Z,12.40
2018-08-19T20:33:19.082Z,9.70
2018-08-19T20:35:47.387Z,10.63
2018-08-19T20:38:15.182Z,9.17
2018-08-19T20:40:43.073Z,11.70
2018-08-19T20:43:15.171Z,10.17
2018-08-19T20:45:43.865Z,9.37
2018-08-19T20:48:11.870Z,13.60
2018-08-19T20:50:39.586Z,16.80
2018-08-19T20:53:07.302Z,10.37
2018-08-19T20:55:35.057Z,11.50
2018-08-19T20:58:02.845Z,9.70
2018-08-19T21:00:30.598Z,11.20
2018-08-19T21:02:58.322Z,11.03
2018-08-19T21:05:26.050Z,10.80
2018-08-19T21:08:06.180Z,9.80
2018-08-19T21:10:33.881Z,12.07
2018-08-19T21:13:01.596Z,9.60
2018-08-19T21:15:34.824Z,9.73
2018-08-19T21:18:02.574Z,11.17
2018-08-19T21:20:30.493Z,11.97
2018-08-19T21:22:58.273Z,10.23
2018-08-19T21:25:26.414Z,11.33
2018-08-19T21:27:54.126Z,14.67
2018-08-19T21:30:21.846Z,10.30
2018-08-19T21:32:49.503Z,11.27
2018-08-19T21:35:17.350Z,11.20
2018-08-19T21:37:46.561Z,10.17
2018-08-19T21:40:17.756Z,12.37
2018-08-19T21:42:50.170Z,11.63
2018-08-19T21:45:17.915Z,11.23
2018-08-19T21:47:45.569Z,10.33
2018-08-19T21:50:13.245Z,11.00
2018-08-19T21:53:00.705Z,10.73
2018-08-19T21:55:31.854Z,12.63
2018-08-19T21:58:00.205Z,10.77
2018-08-19T22:00:28.990Z,11.37
2018-08-19T22:03:03.025Z,13.07
2018-08-19T22:05:32.202Z,11.07
2018-08-19T22:08:00.175Z,12.40
2018-08-19T22:10:27.885Z,10.97
2018-08-19T22:12:55.602Z,11.40
2018-08-19T22:15:28.058Z,11.23
2018-08-19T22:17:57.820Z,10.77
2018-08-19T22:20:25.665Z,11.53
2018-08-19T22:22:53.369Z,10.70
2018-08-19T22:25:21.103Z,11.67
2018-08-19T22:27:48.787Z,11.90
2018-08-19T22:30:16.537Z,11.00
2018-08-19T22:32:44.206Z,11.93
2018-08-19T22:35:11.888Z,12.03
2018-08-19T22:37:39.671Z,11.07
2018-08-19T22:40:07.706Z,12.33
2018-08-19T22:42:35.390Z,10.70
2018-08-19T22:45:03.102Z,12.27
2018-08-19T22:47:30.790Z,11.53
2018-08-19T22:49:59.122Z,13.00
2018-08-19T22:52:26.814Z,11.13
2018-08-19T22:54:56.020Z,12.53
2018-08-19T22:57:23.854Z,11.17
2018-08-19T22:59:51.519Z,10.93
2018-08-19T23:02:19.324Z,13.80
2018-08-19T23:04:47.263Z,10.83
2018-08-19T23:07:15.050Z,11.23
2018-08-19T23:09:42.742Z,11.57
2018-08-19T23:12:10.427Z,11.20
2018-08-19T23:14:49.314Z,13.03
2018-08-19T23:17:17.063Z,10.93
2018-08-19T23:19:45.535Z,11.33
2018-08-19T23:22:13.224Z,11.73
2018-08-19T23:24:40.888Z,11.30
2018-08-19T23:27:08.895Z,11.23
2018-08-19T23:29:36.596Z,11.10
2018-08-19T23:32:04.307Z,12.23
2018-08-19T23:34:32.006Z,11.73
2018-08-19T23:36:59.709Z,11.90
2018-08-19T23:39:27.402Z,10.57
2018-08-19T23:41:55.088Z,11.00
2018-08-19T23:44:22.762Z,12.57
2018-08-19T23:46:50.470Z,11.67
2018-08-19T23:49:18.197Z,10.90
2018-08-19T23:51:45.861Z,10.97
2018-08-19T23:54:13.517Z,11.67
2018-08-19T23:56:41.182Z,10.83
2018-08-19T23:59:08.850Z,11.63
